sensor_id;sensor_type;location;lat;lon;timestamp;pressure;altitude;pressure_sealevel;temperature;humidity
64876;BME280;51369;49.862;9.908;2023-03-05T00:01:13;98557.53;;;5.22;69.91
64876;BME280;51369;49.862;9.908;2023-03-05T00:03:39;98562.00;;;5.22;69.28
64876;BME280;51369;49.862;9.908;2023-03-05T00:06:04;98562.88;;;5.22;69.87
64876;BME280;51369;49.862;9.908;2023-03-05T00:08:31;98560.22;;;5.22;69.86
64876;BME280;51369;49.862;9.908;2023-03-05T00:10:58;98561.13;;;5.21;70.44
64876;BME280;51369;49.862;9.908;2023-03-05T00:13:24;98560.22;;;5.22;69.94
64876;BME280;51369;49.862;9.908;2023-03-05T00:15:50;98554.88;;;5.21;70.58
64876;BME280;51369;49.862;9.908;2023-03-05T00:18:16;98571.78;;;5.24;70.81
64876;BME280;51369;49.862;9.908;2023-03-05T00:20:41;98562.88;;;5.22;70.61
64876;BME280;51369;49.862;9.908;2023-03-05T00:23:06;98560.22;;;5.22;70.56
64876;BME280;51369;49.862;9.908;2023-03-05T00:25:34;98558.41;;;5.23;70.75
64876;BME280;51369;49.862;9.908;2023-03-05T00:28:00;98551.88;;;5.39;70.41
64876;BME280;51369;49.862;9.908;2023-03-05T00:30:25;98549.03;;;5.47;69.60
64876;BME280;51369;49.862;9.908;2023-03-05T00:32:50;98549.84;;;5.50;70.05
64876;BME280;51369;49.862;9.908;2023-03-05T00:35:16;98552.50;;;5.52;69.60
64876;BME280;51369;49.862;9.908;2023-03-05T00:37:42;98538.63;;;5.32;70.20
64876;BME280;51369;49.862;9.908;2023-03-05T00:40:08;98544.03;;;5.29;69.64
64876;BME280;51369;49.862;9.908;2023-03-05T00:42:34;98538.72;;;5.27;70.55
64876;BME280;51369;49.862;9.908;2023-03-05T00:45:04;98541.41;;;5.26;70.34
64876;BME280;51369;49.862;9.908;2023-03-05T00:47:29;98540.56;;;5.23;70.37
64876;BME280;51369;49.862;9.908;2023-03-05T00:49:55;98543.25;;;5.23;70.34
64876;BME280;51369;49.862;9.908;2023-03-05T00:52:20;98540.59;;;5.22;70.78
64876;BME280;51369;49.862;9.908;2023-03-05T00:54:45;98542.38;;;5.21;70.56
64876;BME280;51369;49.862;9.908;2023-03-05T00:57:11;98535.25;;;5.20;70.54
64876;BME280;51369;49.862;9.908;2023-03-05T00:59:36;98542.44;;;5.20;70.34
64876;BME280;51369;49.862;9.908;2023-03-05T01:02:03;98531.50;;;5.31;70.22
64876;BME280;51369;49.862;9.908;2023-03-05T01:04:28;98528.19;;;5.19;70.16
64876;BME280;51369;49.862;9.908;2023-03-05T01:06:54;98524.66;;;5.17;70.99
64876;BME280;51369;49.862;9.908;2023-03-05T01:09:19;98521.13;;;5.15;70.31
64876;BME280;51369;49.862;9.908;2023-03-05T01:11:46;98517.56;;;5.15;71.01
64876;BME280;51369;49.862;9.908;2023-03-05T01:14:12;98514.91;;;5.13;71.24
64876;BME280;51369;49.862;9.908;2023-03-05T01:16:37;98513.16;;;5.12;70.53
64876;BME280;51369;49.862;9.908;2023-03-05T01:19:02;98514.88;;;5.15;71.00
64876;BME280;51369;49.862;9.908;2023-03-05T01:21:28;98513.72;;;5.27;70.94
64876;BME280;51369;49.862;9.908;2023-03-05T01:23:53;98507.25;;;5.38;70.01
64876;BME280;51369;49.862;9.908;2023-03-05T01:26:19;98509.88;;;5.41;70.02
64876;BME280;51369;49.862;9.908;2023-03-05T01:28:44;98514.34;;;5.41;69.84
64876;BME280;51369;49.862;9.908;2023-03-05T01:31:10;98508.06;;;5.42;70.69
64876;BME280;51369;49.862;9.908;2023-03-05T01:33:36;98509.00;;;5.41;70.49
64876;BME280;51369;49.862;9.908;2023-03-05T01:36:05;98509.94;;;5.38;70.91
64876;BME280;51369;49.862;9.908;2023-03-05T01:38:31;98502.81;;;5.37;70.18
64876;BME280;51369;49.862;9.908;2023-03-05T01:40:56;98501.03;;;5.38;70.70
64876;BME280;51369;49.862;9.908;2023-03-05T01:43:25;98500.13;;;5.37;70.11
64876;BME280;51369;49.862;9.908;2023-03-05T01:49:07;98493.94;;;5.35;70.87
64876;BME280;51369;49.862;9.908;2023-03-05T01:51:38;98496.59;;;5.35;70.21
64876;BME280;51369;49.862;9.908;2023-03-05T01:54:06;98492.19;;;5.33;70.27
64876;BME280;51369;49.862;9.908;2023-03-05T01:56:33;98488.63;;;5.32;70.42
64876;BME280;51369;49.862;9.908;2023-03-05T01:59:00;98487.78;;;5.30;70.64
64876;BME280;51369;49.862;9.908;2023-03-05T02:01:49;98478.91;;;5.28;70.20
64876;BME280;51369;49.862;9.908;2023-03-05T02:04:17;98477.09;;;5.29;70.49
64876;BME280;51369;49.862;9.908;2023-03-05T02:06:45;98477.09;;;5.29;70.90
64876;BME280;51369;49.862;9.908;2023-03-05T02:09:11;98474.44;;;5.29;70.77
64876;BME280;51369;49.862;9.908;2023-03-05T02:11:38;98478.00;;;5.29;71.29
64876;BME280;51369;49.862;9.908;2023-03-05T02:14:04;98475.47;;;5.21;71.09
64876;BME280;51369;49.862;9.908;2023-03-05T02:16:31;98470.97;;;5.23;70.71
64876;BME280;51369;49.862;9.908;2023-03-05T02:19:04;98463.81;;;5.24;70.54
64876;BME280;51369;49.862;9.908;2023-03-05T02:21:43;98464.75;;;5.21;71.40
64876;BME280;51369;49.862;9.908;2023-03-05T02:24:34;98456.72;;;5.21;71.16
64876;BME280;51369;49.862;9.908;2023-03-05T02:27:00;98459.41;;;5.21;70.82
64876;BME280;51369;49.862;9.908;2023-03-05T02:29:28;98448.75;;;5.20;71.08
64876;BME280;51369;49.862;9.908;2023-03-05T02:31:54;98454.13;;;5.20;70.64
64876;BME280;51369;49.862;9.908;2023-03-05T02:34:21;98454.16;;;5.18;71.44
64876;BME280;51369;49.862;9.908;2023-03-05T02:36:48;98443.44;;;5.18;71.27
64876;BME280;51369;49.862;9.908;2023-03-05T02:39:17;98450.59;;;5.18;71.05
64876;BME280;51369;49.862;9.908;2023-03-05T02:41:42;98447.03;;;5.17;71.03
64876;BME280;51369;49.862;9.908;2023-03-05T02:44:09;98439.91;;;5.16;71.74
64876;BME280;51369;49.862;9.908;2023-03-05T02:46:34;98444.31;;;5.19;71.49
64876;BME280;51369;49.862;9.908;2023-03-05T02:49:00;98440.75;;;5.18;71.30
64876;BME280;51369;49.862;9.908;2023-03-05T02:51:26;98439.00;;;5.17;70.92
64876;BME280;51369;49.862;9.908;2023-03-05T02:53:52;98439.91;;;5.16;71.83
64876;BME280;51369;49.862;9.908;2023-03-05T02:56:17;98435.44;;;5.17;71.10
64876;BME280;51369;49.862;9.908;2023-03-05T02:58:43;98432.81;;;5.15;71.35
64876;BME280;51369;49.862;9.908;2023-03-05T03:01:08;98428.34;;;5.14;71.95
64876;BME280;51369;49.862;9.908;2023-03-05T03:03:35;98430.13;;;5.15;71.60
64876;BME280;51369;49.862;9.908;2023-03-05T03:06:01;98427.47;;;5.14;71.44
64876;BME280;51369;49.862;9.908;2023-03-05T03:08:26;98426.59;;;5.13;71.79
64876;BME280;51369;49.862;9.908;2023-03-05T03:10:52;98437.31;;;5.13;71.84
64876;BME280;51369;49.862;9.908;2023-03-05T03:13:17;98429.31;;;5.12;71.35
64876;BME280;51369;49.862;9.908;2023-03-05T03:15:43;98425.75;;;5.11;71.38
64876;BME280;51369;49.862;9.908;2023-03-05T03:18:09;98427.53;;;5.11;71.97
64876;BME280;51369;49.862;9.908;2023-03-05T03:20:36;98415.94;;;5.10;71.44
64876;BME280;51369;49.862;9.908;2023-03-05T03:23:03;98421.31;;;5.10;72.24
64876;BME280;51369;49.862;9.908;2023-03-05T03:25:28;98414.19;;;5.09;72.15
64876;BME280;51369;49.862;9.908;2023-03-05T03:27:54;98409.75;;;5.08;71.54
64876;BME280;51369;49.862;9.908;2023-03-05T03:30:19;98411.53;;;5.08;71.79
64876;BME280;51369;49.862;9.908;2023-03-05T03:32:45;98405.31;;;5.07;71.57
64876;BME280;51369;49.862;9.908;2023-03-05T03:35:11;98410.66;;;5.07;71.88
64876;BME280;51369;49.862;9.908;2023-03-05T03:37:37;98406.22;;;5.06;71.60
64876;BME280;51369;49.862;9.908;2023-03-05T03:40:04;98407.13;;;5.05;71.52
64876;BME280;51369;49.862;9.908;2023-03-05T03:42:30;98402.69;;;5.04;71.51
64876;BME280;51369;49.862;9.908;2023-03-05T03:44:55;98400.03;;;5.04;71.57
64876;BME280;51369;49.862;9.908;2023-03-05T03:47:21;98400.06;;;5.03;71.48
64876;BME280;51369;49.862;9.908;2023-03-05T03:49:46;98410.75;;;5.03;72.00
64876;BME280;51369;49.862;9.908;2023-03-05T03:52:12;98400.97;;;5.02;71.47
64876;BME280;51369;49.862;9.908;2023-03-05T03:54:37;98398.28;;;5.02;71.79
64876;BME280;51369;49.862;9.908;2023-03-05T03:57:03;98398.31;;;5.00;71.87
64876;BME280;51369;49.862;9.908;2023-03-05T03:59:28;98393.84;;;5.01;71.53
64876;BME280;51369;49.862;9.908;2023-03-05T04:01:54;98395.66;;;5.00;71.70
64876;BME280;51369;49.862;9.908;2023-03-05T04:04:19;98399.19;;;5.01;71.77
64876;BME280;51369;49.862;9.908;2023-03-05T04:06:44;98393.84;;;5.01;71.72
64876;BME280;51369;49.862;9.908;2023-03-05T04:09:10;98384.94;;;5.00;71.37
64876;BME280;51369;49.862;9.908;2023-03-05T04:11:36;98384.09;;;4.98;70.73
64876;BME280;51369;49.862;9.908;2023-03-05T04:14:02;98386.78;;;4.98;71.60
64876;BME280;51369;49.862;9.908;2023-03-05T04:16:29;98382.31;;;4.97;71.47
64876;BME280;51369;49.862;9.908;2023-03-05T04:18:55;98382.34;;;4.96;70.68
64876;BME280;51369;49.862;9.908;2023-03-05T04:21:20;98377.00;;;4.96;71.53
64876;BME280;51369;49.862;9.908;2023-03-05T04:23:45;98381.44;;;4.97;71.37
64876;BME280;51369;49.862;9.908;2023-03-05T04:26:11;98385.03;;;4.96;70.66
64876;BME280;51369;49.862;9.908;2023-03-05T04:28:37;98382.34;;;4.96;70.67
64876;BME280;51369;49.862;9.908;2023-03-05T04:31:03;98378.81;;;4.95;70.62
64876;BME280;51369;49.862;9.908;2023-03-05T04:33:29;98382.38;;;4.94;70.58
64876;BME280;51369;49.862;9.908;2023-03-05T04:35:54;98373.50;;;4.92;70.31
64876;BME280;51369;49.862;9.908;2023-03-05T04:38:20;98386.00;;;4.92;70.35
64876;BME280;51369;49.862;9.908;2023-03-05T04:40:46;98375.34;;;4.90;70.37
64876;BME280;51369;49.862;9.908;2023-03-05T04:43:11;98370.91;;;4.89;69.96
64876;BME280;51369;49.862;9.908;2023-03-05T04:45:41;98363.78;;;4.88;70.92
64876;BME280;51369;49.862;9.908;2023-03-05T04:48:07;98365.59;;;4.87;70.74
64876;BME280;51369;49.862;9.908;2023-03-05T04:50:32;98366.53;;;4.85;69.92
64876;BME280;51369;49.862;9.908;2023-03-05T04:52:58;98371.88;;;4.85;70.63
64876;BME280;51369;49.862;9.908;2023-03-05T04:55:25;98367.44;;;4.84;70.37
64876;BME280;51369;49.862;9.908;2023-03-05T04:57:50;98366.53;;;4.85;70.00
64876;BME280;51369;49.862;9.908;2023-03-05T05:00:17;98367.44;;;4.84;69.75
64876;BME280;51369;49.862;9.908;2023-03-05T05:02:44;98363.91;;;4.82;68.51
64876;BME280;51369;49.862;9.908;2023-03-05T05:05:21;98356.75;;;4.82;69.12
64876;BME280;51369;49.862;9.908;2023-03-05T05:07:47;98357.66;;;4.83;68.71
64876;BME280;51369;49.862;9.908;2023-03-05T05:10:13;98355.88;;;4.82;67.84
64876;BME280;51369;49.862;9.908;2023-03-05T05:12:39;98354.13;;;4.81;68.20
64876;BME280;51369;49.862;9.908;2023-03-05T05:15:06;98347.94;;;4.79;68.22
64876;BME280;51369;49.862;9.908;2023-03-05T05:17:32;98354.19;;;4.78;68.88
64876;BME280;51369;49.862;9.908;2023-03-05T05:19:59;98347.94;;;4.77;68.63
64876;BME280;51369;49.862;9.908;2023-03-05T05:22:26;98359.53;;;4.78;68.19
64876;BME280;51369;49.862;9.908;2023-03-05T05:24:51;98348.88;;;4.76;68.41
64876;BME280;51369;49.862;9.908;2023-03-05T05:27:17;98346.22;;;4.75;68.79
64876;BME280;51369;49.862;9.908;2023-03-05T05:29:42;98357.81;;;4.74;68.14
64876;BME280;51369;49.862;9.908;2023-03-05T05:32:09;98358.75;;;4.73;68.76
64876;BME280;51369;49.862;9.908;2023-03-05T05:34:34;98345.38;;;4.73;69.42
64876;BME280;51369;49.862;9.908;2023-03-05T05:37:00;98351.63;;;4.72;69.28
64876;BME280;51369;49.862;9.908;2023-03-05T05:39:25;98350.78;;;4.70;68.80
64876;BME280;51369;49.862;9.908;2023-03-05T05:41:51;98351.69;;;4.69;68.85
64876;BME280;51369;49.862;9.908;2023-03-05T05:44:17;98342.84;;;4.65;69.20
64876;BME280;51369;49.862;9.908;2023-03-05T05:46:43;98349.13;;;4.63;69.55
64876;BME280;51369;49.862;9.908;2023-03-05T05:49:08;98351.84;;;4.61;68.84
64876;BME280;51369;49.862;9.908;2023-03-05T05:51:33;98351.88;;;4.60;70.18
64876;BME280;51369;49.862;9.908;2023-03-05T05:53:59;98353.63;;;4.61;70.06
64876;BME280;51369;49.862;9.908;2023-03-05T05:56:24;98347.44;;;4.58;69.82
64876;BME280;51369;49.862;9.908;2023-03-05T05:58:50;98343.91;;;4.56;69.99
64876;BME280;51369;49.862;9.908;2023-03-05T06:03:46;98344.84;;;4.54;69.55
64876;BME280;51369;49.862;9.908;2023-03-05T06:06:14;98349.31;;;4.53;69.89
64876;BME280;51369;49.862;9.908;2023-03-05T06:08:40;98352.88;;;4.54;70.02
64876;BME280;51369;49.862;9.908;2023-03-05T06:11:06;98356.44;;;4.53;70.08
64876;BME280;51369;49.862;9.908;2023-03-05T06:13:32;98355.59;;;4.51;70.05
64876;BME280;51369;49.862;9.908;2023-03-05T06:15:58;98357.38;;;4.52;70.36
64876;BME280;51369;49.862;9.908;2023-03-05T06:18:24;98357.34;;;4.53;70.81
64876;BME280;51369;49.862;9.908;2023-03-05T06:20:56;98351.06;;;4.54;70.52
64876;BME280;51369;49.862;9.908;2023-03-05T06:23:22;98353.75;;;4.54;70.42
64876;BME280;51369;49.862;9.908;2023-03-05T06:25:48;98355.50;;;4.55;70.26
64876;BME280;51369;49.862;9.908;2023-03-05T06:28:13;98355.47;;;4.57;70.12
64876;BME280;51369;49.862;9.908;2023-03-05T06:30:39;98357.25;;;4.58;70.85
64876;BME280;51369;49.862;9.908;2023-03-05T06:33:04;98359.94;;;4.56;70.99
64876;BME280;51369;49.862;9.908;2023-03-05T06:35:31;98363.44;;;4.60;70.15
64876;BME280;51369;49.862;9.908;2023-03-05T06:37:57;98357.19;;;4.61;70.26
64876;BME280;51369;49.862;9.908;2023-03-05T06:40:22;98362.47;;;4.64;69.88
64876;BME280;51369;49.862;9.908;2023-03-05T06:42:48;98350.00;;;4.65;70.37
64876;BME280;51369;49.862;9.908;2023-03-05T06:45:13;98358.88;;;4.67;69.44
64876;BME280;51369;49.862;9.908;2023-03-05T06:47:38;98354.44;;;4.66;68.93
64876;BME280;51369;49.862;9.908;2023-03-05T06:50:05;98357.09;;;4.66;69.43
64876;BME280;51369;49.862;9.908;2023-03-05T06:52:31;98354.44;;;4.66;68.28
64876;BME280;51369;49.862;9.908;2023-03-05T06:54:56;98355.34;;;4.65;68.62
64876;BME280;51369;49.862;9.908;2023-03-05T06:57:22;98361.53;;;4.67;68.98
64876;BME280;51369;49.862;9.908;2023-03-05T06:59:47;98357.94;;;4.68;68.05
64876;BME280;51369;49.862;9.908;2023-03-05T07:02:13;98361.50;;;4.68;67.47
64876;BME280;51369;49.862;9.908;2023-03-05T07:04:39;98347.25;;;4.68;68.42
64876;BME280;51369;49.862;9.908;2023-03-05T07:07:04;98356.16;;;4.68;68.49
64876;BME280;51369;49.862;9.908;2023-03-05T07:09:30;98352.59;;;4.68;68.57
64876;BME280;51369;49.862;9.908;2023-03-05T07:11:56;98351.72;;;4.67;67.82
64876;BME280;51369;49.862;9.908;2023-03-05T07:14:21;98351.72;;;4.67;68.04
64876;BME280;51369;49.862;9.908;2023-03-05T07:16:47;98351.72;;;4.67;68.38
64876;BME280;51369;49.862;9.908;2023-03-05T07:19:12;98357.06;;;4.67;68.19
64876;BME280;51369;49.862;9.908;2023-03-05T07:21:38;98347.25;;;4.68;68.28
64876;BME280;51369;49.862;9.908;2023-03-05T07:24:03;98347.22;;;4.69;67.75
64876;BME280;51369;49.862;9.908;2023-03-05T07:26:31;98349.88;;;4.71;67.85
64876;BME280;51369;49.862;9.908;2023-03-05T07:28:57;98349.84;;;4.72;67.27
64876;BME280;51369;49.862;9.908;2023-03-05T07:31:24;98356.88;;;4.76;67.39
64876;BME280;51369;49.862;9.908;2023-03-05T07:33:55;98352.34;;;4.81;67.53
64876;BME280;51369;49.862;9.908;2023-03-05T07:36:21;98351.34;;;4.85;67.23
64876;BME280;51369;49.862;9.908;2023-03-05T07:38:47;98343.22;;;4.90;66.31
64876;BME280;51369;49.862;9.908;2023-03-05T07:41:14;98350.28;;;4.94;66.25
64876;BME280;51369;49.862;9.908;2023-03-05T07:43:44;98346.66;;;4.97;66.85
64876;BME280;51369;49.862;9.908;2023-03-05T07:46:11;98345.69;;;5.01;66.01
64876;BME280;51369;49.862;9.908;2023-03-05T07:48:38;98337.59;;;5.04;66.54
64876;BME280;51369;49.862;9.908;2023-03-05T07:51:09;98339.31;;;5.06;66.28
64876;BME280;51369;49.862;9.908;2023-03-05T07:53:36;98344.59;;;5.11;65.57
64876;BME280;51369;49.862;9.908;2023-03-05T07:56:01;98337.38;;;5.14;66.01
64876;BME280;51369;49.862;9.908;2023-03-05T07:58:27;98336.38;;;5.18;65.64
64876;BME280;51369;49.862;9.908;2023-03-05T08:00:53;98337.19;;;5.20;65.33
64876;BME280;51369;49.862;9.908;2023-03-05T08:03:18;98329.97;;;5.24;65.47
64876;BME280;51369;49.862;9.908;2023-03-05T08:05:43;98330.78;;;5.28;65.45
64876;BME280;51369;49.862;9.908;2023-03-05T08:08:09;98332.47;;;5.33;65.57
64876;BME280;51369;49.862;9.908;2023-03-05T08:10:35;98330.56;;;5.38;64.41
64876;BME280;51369;49.862;9.908;2023-03-05T08:13:01;98328.69;;;5.42;65.08
64876;BME280;51369;49.862;9.908;2023-03-05T08:15:27;98309.88;;;5.45;64.38
64876;BME280;51369;49.862;9.908;2023-03-05T08:17:52;98303.56;;;5.47;64.70
64876;BME280;51369;49.862;9.908;2023-03-05T08:20:18;98312.38;;;5.52;64.45
64876;BME280;51369;49.862;9.908;2023-03-05T08:22:44;98312.25;;;5.57;64.24
64876;BME280;51369;49.862;9.908;2023-03-05T08:25:10;98317.50;;;5.62;64.20
64876;BME280;51369;49.862;9.908;2023-03-05T08:27:41;98318.31;;;5.65;63.73
64876;BME280;51369;49.862;9.908;2023-03-05T08:30:11;98312.88;;;5.68;63.62
64876;BME280;51369;49.862;9.908;2023-03-05T08:32:37;98319.97;;;5.71;63.37
64876;BME280;51369;49.862;9.908;2023-03-05T08:35:02;98316.38;;;5.72;63.28
64876;BME280;51369;49.862;9.908;2023-03-05T08:37:29;98314.53;;;5.74;62.67
64876;BME280;51369;49.862;9.908;2023-03-05T08:39:55;98318.09;;;5.74;62.51
64876;BME280;51369;49.862;9.908;2023-03-05T08:42:21;98312.66;;;5.77;62.54
64876;BME280;51369;49.862;9.908;2023-03-05T08:44:47;98312.66;;;5.77;62.18
64876;BME280;51369;49.862;9.908;2023-03-05T08:47:12;98311.75;;;5.78;62.21
64876;BME280;51369;49.862;9.908;2023-03-05T08:49:37;98318.88;;;5.79;62.70
64876;BME280;51369;49.862;9.908;2023-03-05T08:52:03;98316.16;;;5.81;62.40
64876;BME280;51369;49.862;9.908;2023-03-05T08:54:29;98313.44;;;5.82;62.84
64876;BME280;51369;49.862;9.908;2023-03-05T08:56:54;98303.56;;;5.84;62.48
64876;BME280;51369;49.862;9.908;2023-03-05T08:59:19;98314.19;;;5.87;62.40
64876;BME280;51369;49.862;9.908;2023-03-05T09:01:45;98303.44;;;5.91;62.77
64876;BME280;51369;49.862;9.908;2023-03-05T09:04:10;98303.38;;;5.94;61.40
64876;BME280;51369;49.862;9.908;2023-03-05T09:06:36;98309.56;;;5.96;61.68
64876;BME280;51369;49.862;9.908;2023-03-05T09:09:08;98305.97;;;5.97;61.46
64876;BME280;51369;49.862;9.908;2023-03-05T09:11:34;98298.78;;;5.99;61.47
64876;BME280;51369;49.862;9.908;2023-03-05T09:14:02;98310.38;;;5.99;60.72
64876;BME280;51369;49.862;9.908;2023-03-05T09:16:27;98297.84;;;6.00;60.96
64876;BME280;51369;49.862;9.908;2023-03-05T09:18:53;98296.94;;;6.01;60.86
64876;BME280;51369;49.862;9.908;2023-03-05T09:21:18;98293.31;;;6.02;61.02
64876;BME280;51369;49.862;9.908;2023-03-05T09:23:44;98290.66;;;6.02;60.65
64876;BME280;51369;49.862;9.908;2023-03-05T09:26:12;98292.31;;;6.06;60.30
64876;BME280;51369;49.862;9.908;2023-03-05T09:28:40;98287.81;;;6.08;60.32
64876;BME280;51369;49.862;9.908;2023-03-05T09:31:06;98281.44;;;6.12;60.69
64876;BME280;51369;49.862;9.908;2023-03-05T09:33:33;98285.75;;;6.17;59.83
64876;BME280;51369;49.862;9.908;2023-03-05T09:35:59;98275.75;;;6.24;59.83
64876;BME280;51369;49.862;9.908;2023-03-05T09:38:26;98272.00;;;6.31;60.05
64876;BME280;51369;49.862;9.908;2023-03-05T09:40:58;98276.25;;;6.38;59.81
64876;BME280;51369;49.862;9.908;2023-03-05T09:46:17;98261.69;;;6.48;59.28
64876;BME280;51369;49.862;9.908;2023-03-05T09:48:52;98264.28;;;6.51;58.73
64876;BME280;51369;49.862;9.908;2023-03-05T09:51:24;98263.25;;;6.56;59.23
64876;BME280;51369;49.862;9.908;2023-03-05T09:54:18;98268.59;;;6.57;58.93
64876;BME280;51369;49.862;9.908;2023-03-05T09:56:50;98264.88;;;6.61;58.66
64876;BME280;51369;49.862;9.908;2023-03-05T10:01:55;98268.97;;;6.43;58.36
64876;BME280;51369;49.862;9.908;2023-03-05T10:04:40;98266.41;;;6.39;58.65
64876;BME280;51369;49.862;9.908;2023-03-05T10:07:22;98259.25;;;6.39;58.47
64876;BME280;51369;49.862;9.908;2023-03-05T10:10:32;98256.56;;;6.39;58.34
64876;BME280;51369;49.862;9.908;2023-03-05T10:13:00;98262.78;;;6.41;58.68
64876;BME280;51369;49.862;9.908;2023-03-05T10:15:36;98257.41;;;6.41;58.53
64876;BME280;51369;49.862;9.908;2023-03-05T10:20:54;98255.47;;;6.46;58.55
64876;BME280;51369;49.862;9.908;2023-03-05T10:39:56;98247.00;;;6.91;57.47
64876;BME280;51369;49.862;9.908;2023-03-05T10:45:17;98233.22;;;7.02;57.00
64876;BME280;51369;49.862;9.908;2023-03-05T10:47:48;98237.53;;;7.07;57.04
64876;BME280;51369;49.862;9.908;2023-03-05T10:50:27;98230.16;;;7.14;56.89
64876;BME280;51369;49.862;9.908;2023-03-05T10:55:40;98227.06;;;7.28;56.75
64876;BME280;51369;49.862;9.908;2023-03-05T10:58:14;98222.41;;;7.33;57.11
64876;BME280;51369;49.862;9.908;2023-03-05T11:01:00;98223.13;;;7.38;56.92
64876;BME280;51369;49.862;9.908;2023-03-05T11:03:49;98214.16;;;7.39;56.61
64876;BME280;51369;49.862;9.908;2023-03-05T11:06:26;98206.81;;;7.44;56.45
64876;BME280;51369;49.862;9.908;2023-03-05T11:08:51;98213.84;;;7.48;56.18
64876;BME280;51369;49.862;9.908;2023-03-05T11:11:19;98199.50;;;7.49;56.57
64876;BME280;51369;49.862;9.908;2023-03-05T11:13:55;98202.06;;;7.52;56.18
64876;BME280;51369;49.862;9.908;2023-03-05T11:16:25;98199.28;;;7.55;56.65
64876;BME280;51369;49.862;9.908;2023-03-05T11:19:17;98198.41;;;7.55;56.19
64876;BME280;51369;49.862;9.908;2023-03-05T11:21:44;98192.88;;;7.59;56.57
64876;BME280;51369;49.862;9.908;2023-03-05T11:26:52;98189.16;;;7.63;56.02
64876;BME280;51369;49.862;9.908;2023-03-05T11:29:24;98181.00;;;7.66;55.72
64876;BME280;51369;49.862;9.908;2023-03-05T11:31:51;98179.19;;;7.67;55.98
64876;BME280;51369;49.862;9.908;2023-03-05T11:39:17;98182.75;;;7.67;55.74
64876;BME280;51369;49.862;9.908;2023-03-05T11:41:50;98181.81;;;7.68;56.90
64876;BME280;51369;49.862;9.908;2023-03-05T11:44:28;98169.31;;;7.67;55.87
64876;BME280;51369;49.862;9.908;2023-03-05T11:46:59;98172.13;;;7.64;55.89
64876;BME280;51369;49.862;9.908;2023-03-05T11:49:28;98156.03;;;7.63;55.85
64876;BME280;51369;49.862;9.908;2023-03-05T11:52:03;98149.78;;;7.62;55.98
64876;BME280;51369;49.862;9.908;2023-03-05T11:54:51;98151.50;;;7.65;56.28
64876;BME280;51369;49.862;9.908;2023-03-05T11:57:20;98145.97;;;7.69;55.88
64876;BME280;51369;49.862;9.908;2023-03-05T11:59:48;98147.63;;;7.73;56.09
64876;BME280;51369;49.862;9.908;2023-03-05T12:02:22;98143.00;;;7.77;56.50
64876;BME280;51369;49.862;9.908;2023-03-05T12:04:49;98142.03;;;7.79;56.12
64876;BME280;51369;49.862;9.908;2023-03-05T12:07:33;98129.41;;;7.81;56.48
64876;BME280;51369;49.862;9.908;2023-03-05T12:10:00;98125.72;;;7.84;55.85
64876;BME280;51369;49.862;9.908;2023-03-05T12:15:40;98122.72;;;7.93;56.54
64876;BME280;51369;49.862;9.908;2023-03-05T12:18:29;98119.84;;;7.98;56.01
64876;BME280;51369;49.862;9.908;2023-03-05T12:23:26;98111.47;;;8.07;55.56
64876;BME280;51369;49.862;9.908;2023-03-05T12:25:57;98111.41;;;8.08;56.15
64876;BME280;51369;49.862;9.908;2023-03-05T12:31:45;98103.22;;;8.11;55.94
64876;BME280;51369;49.862;9.908;2023-03-05T12:33:45;98094.22;;;8.12;56.26
64876;BME280;51369;49.862;9.908;2023-03-05T12:41:32;98080.59;;;8.17;55.49
64876;BME280;51369;49.862;9.908;2023-03-05T12:46:40;98080.19;;;8.28;55.37
64876;BME280;51369;49.862;9.908;2023-03-05T12:49:27;98079.19;;;8.30;55.51
64876;BME280;51369;49.862;9.908;2023-03-05T12:51:55;98064.69;;;8.36;55.53
64876;BME280;51369;49.862;9.908;2023-03-05T12:54:27;98062.88;;;8.36;54.78
64876;BME280;51369;49.862;9.908;2023-03-05T12:56:58;98065.63;;;8.35;55.29
64876;BME280;51369;49.862;9.908;2023-03-05T12:59:37;98071.94;;;8.34;55.05
64876;BME280;51369;49.862;9.908;2023-03-05T13:02:17;98057.63;;;8.32;54.66
64876;BME280;51369;49.862;9.908;2023-03-05T13:04:45;98061.31;;;8.29;54.77
64876;BME280;51369;49.862;9.908;2023-03-05T13:07:16;98065.06;;;8.25;54.43
64876;BME280;51369;49.862;9.908;2023-03-05T13:09:51;98056.28;;;8.20;55.02
64876;BME280;51369;49.862;9.908;2023-03-05T13:12:18;98052.03;;;8.14;54.70
64876;BME280;51369;49.862;9.908;2023-03-05T13:14:45;98051.25;;;8.11;55.25
64876;BME280;51369;49.862;9.908;2023-03-05T13:17:35;98049.84;;;8.01;55.05
64876;BME280;51369;49.862;9.908;2023-03-05T13:20:27;98049.31;;;7.91;54.61
64876;BME280;51369;49.862;9.908;2023-03-05T13:23:25;98042.34;;;7.86;54.80
64876;BME280;51369;49.862;9.908;2023-03-05T13:28:22;98049.00;;;7.75;55.66
64876;BME280;51369;49.862;9.908;2023-03-05T13:33:19;98039.69;;;7.61;55.43
64876;BME280;51369;49.862;9.908;2023-03-05T13:35:46;98038.09;;;7.55;55.45
64876;BME280;51369;49.862;9.908;2023-03-05T13:38:20;98032.03;;;7.50;56.07
64876;BME280;51369;49.862;9.908;2023-03-05T13:41:03;98027.69;;;7.46;55.69
64876;BME280;51369;49.862;9.908;2023-03-05T13:43:29;98026.75;;;7.47;56.29
64876;BME280;51369;49.862;9.908;2023-03-05T13:45:55;98024.25;;;7.42;55.49
64876;BME280;51369;49.862;9.908;2023-03-05T13:48:21;98021.72;;;7.38;54.89
64876;BME280;51369;49.862;9.908;2023-03-05T13:50:52;98011.19;;;7.32;55.59
64876;BME280;51369;49.862;9.908;2023-03-05T13:53:24;98009.44;;;7.31;55.50
64876;BME280;51369;49.862;9.908;2023-03-05T13:55:53;98014.81;;;7.31;55.61
64876;BME280;51369;49.862;9.908;2023-03-05T14:01:23;98006.66;;;7.34;56.24
64876;BME280;51369;49.862;9.908;2023-03-05T14:03:51;98004.66;;;7.39;55.92
64876;BME280;51369;49.862;9.908;2023-03-05T14:06:21;98008.19;;;7.41;56.76
64876;BME280;51369;49.862;9.908;2023-03-05T14:08:51;97997.31;;;7.44;56.20
64876;BME280;51369;49.862;9.908;2023-03-05T14:11:18;98004.41;;;7.46;56.27
64876;BME280;51369;49.862;9.908;2023-03-05T14:13:45;98001.66;;;7.48;56.46
64876;BME280;51369;49.862;9.908;2023-03-05T14:16:25;97995.28;;;7.50;56.46
64876;BME280;51369;49.862;9.908;2023-03-05T14:19:02;98000.59;;;7.52;56.40
64876;BME280;51369;49.862;9.908;2023-03-05T14:21:46;97986.25;;;7.53;56.15
64876;BME280;51369;49.862;9.908;2023-03-05T14:24:21;97979.06;;;7.54;55.69